Time,TemperatureF,DewpointF,PressureIn,WindDirection,WindDirectionDegrees,WindSpeedMPH,WindSpeedGustMPH,Humidity,HourlyPrecipIn,Conditions,Clouds,dailyrainin,SoftwareType,DateUTC
2013-04-23 00:01:00,41.4,33.7,30.49,NE,45,10.5,10.5,74,0.00,CLR,,0.00,WeatherDisplay:10.37,2013-04-23 04:01:00,
2013-04-23 00:02:00,41.4,33.7,30.49,ENE,68,5.2,10.4,74,0.00,CLR,,0.00,WeatherDisplay:10.37,2013-04-23 04:02:00,
2013-04-23 00:07:00,41.4,33.7,30.49,East,90,6.2,6.2,74,0.00,CLR,,0.00,WeatherDisplay:10.37,2013-04-23 04:07:00,
2013-04-23 00:12:00,41.4,33.7,30.49,NE,45,4.5,4.6,74,0.00,CLR,,0.00,WeatherDisplay:10.37,2013-04-23 04:12:00,
2013-04-23 00:17:00,41.4,33.7,30.49,ENE,68,2.9,5.8,74,0.00,CLR,,0.00,WeatherDisplay:10.37,2013-04-23 04:17:00,
2013-04-23 00:22:00,41.4,34.0,30.49,NE,45,3.8,8.1,75,0.00,CLR,,0.00,WeatherDisplay:10.37,2013-04-23 04:22:00,
2013-04-23 00:27:00,41.5,34.2,30.48,ENE,68,1.4,8.1,75,0.00,CLR,,0.00,WeatherDisplay:10.37,2013-04-23 04:27:00,
2013-04-23 00:32:00,41.5,34.2,30.48,NE,45,7.4,7.4,75,0.00,CLR,,0.00,WeatherDisplay:10.37,2013-04-23 04:32:00,
2013-04-23 00:37:00,41.5,34.2,30.47,ENE,68,2.6,4.6,75,0.00,CLR,,0.00,WeatherDisplay:10.37,2013-04-23 04:37:00,
2013-04-23 00:42:00,41.7,34.4,30.47,NE,45,2.9,2.9,75,0.00,CLR,,0.00,WeatherDisplay:10.37,2013-04-23 04:42:00,
2013-04-23 00:48:00,41.7,34.7,30.47,ENE,68,4.3,5.8,76,0.00,CLR,,0.00,WeatherDisplay:10.37,2013-04-23 04:48:00,
2013-04-23 00:53:00,41.7,34.7,30.47,East,90,6.2,6.2,76,0.00,CLR,,0.00,WeatherDisplay:10.37,2013-04-23 04:53:00,
2013-04-23 00:58:00,41.9,34.9,30.47,ESE,112,3.3,3.5,76,0.00,CLR,,0.00,WeatherDisplay:10.37,2013-04-23 04:58:00,
2013-04-23 01:03:00,41.7,34.7,30.47,NE,45,3.3,6.9,76,0.00,CLR,,0.00,WeatherDisplay:10.37,2013-04-23 05:03:00,
2013-04-23 01:08:00,41.9,34.9,30.46,ENE,68,5.2,5.8,76,0.00,CLR,,0.00,WeatherDisplay:10.37,2013-04-23 05:08:00,
2013-04-23 01:13:00,41.9,34.9,30.46,ENE,68,4.3,8.1,76,0.00,CLR,,0.00,WeatherDisplay:10.37,2013-04-23 05:13:00,
2013-04-23 01:18:00,41.9,34.9,30.45,NE,45,0.9,4.6,76,0.00,CLR,,0.00,WeatherDisplay:10.37,2013-04-23 05:18:00,
2013-04-23 01:23:00,41.9,34.9,30.46,ENE,68,4.5,4.5,76,0.00,CLR,,0.00,WeatherDisplay:10.37,2013-04-23 05:23:00,
2013-04-23 01:28:00,41.9,34.9,30.45,NE,45,0.9,5.8,76,0.00,CLR,,0.00,WeatherDisplay:10.37,2013-04-23 05:28:00,
2013-04-23 01:33:00,42.1,35.1,30.45,ENE,68,2.2,6.9,76,0.00,CLR,,0.00,WeatherDisplay:10.37,2013-04-23 05:33:00,
2013-04-23 01:38:00,42.1,35.4,30.45,NE,45,4.7,5.8,77,0.00,CLR,,0.00,WeatherDisplay:10.37,2013-04-23 05:38:00,
2013-04-23 01:43:00,42.1,35.4,30.45,East,90,5.9,6.9,77,0.00,CLR,,0.00,WeatherDisplay:10.37,2013-04-23 05:43:00,
2013-04-23 01:48:00,42.1,35.4,30.44,NE,45,3.6,5.8,77,0.00,CLR,,0.00,WeatherDisplay:10.37,2013-04-23 05:48:00,
2013-04-23 01:53:00,42.1,35.4,30.43,ENE,68,7.6,7.6,77,0.00,CLR,,0.00,WeatherDisplay:10.37,2013-04-23 05:53:00,
2013-04-23 01:58:00,42.1,35.7,30.44,ENE,68,3.8,8.1,78,0.00,CLR,,0.00,WeatherDisplay:10.37,2013-04-23 05:58:00,
2013-04-23 02:03:00,42.1,35.4,30.43,East,90,3.6,3.6,77,0.00,CLR,,0.00,WeatherDisplay:10.37,2013-04-23 06:03:00,
2013-04-23 02:08:00,42.1,35.4,30.43,North,0,2.2,5.8,77,0.00,CLR,,0.00,WeatherDisplay:10.37,2013-04-23 06:08:00,
2013-04-23 02:13:00,42.1,35.4,30.43,NNW,338,0.5,3.5,77,0.00,CLR,,0.00,WeatherDisplay:10.37,2013-04-23 06:13:00,
2013-04-23 02:18:00,42.1,35.4,30.43,NNE,22,3.3,3.3,77,0.00,CLR,,0.00,WeatherDisplay:10.37,2013-04-23 06:18:00,
2013-04-23 02:23:00,42.1,35.7,30.42,East,90,5.4,5.4,78,0.00,CLR,,0.00,WeatherDisplay:10.37,2013-04-23 06:23:00,
2013-04-23 02:28:00,42.1,35.7,30.42,ENE,68,3.3,8.1,78,0.00,CLR,,0.00,WeatherDisplay:10.37,2013-04-23 06:28:00,
2013-04-23 02:33:00,42.1,36.0,30.42,North,0,1.6,4.6,79,0.00,CLR,,0.00,WeatherDisplay:10.37,2013-04-23 06:33:00,
2013-04-23 02:38:00,42.1,36.4,30.42,NNE,22,4.7,6.9,80,0.00,CLR,,0.00,WeatherDisplay:10.37,2013-04-23 06:38:00,
2013-04-23 02:43:00,42.1,36.7,30.42,NE,45,1.4,4.6,81,0.00,CLR,,0.00,WeatherDisplay:10.37,2013-04-23 06:43:00,
2013-04-23 02:48:00,42.1,36.7,30.42,ENE,68,2.2,3.5,81,0.00,CLR,,0.00,WeatherDisplay:10.37,2013-04-23 06:48:00,
2013-04-23 02:53:00,42.1,36.4,30.42,NNE,22,4.5,4.5,80,0.00,CLR,,0.00,WeatherDisplay:10.37,2013-04-23 06:53:00,
2013-04-23 02:58:00,42.1,36.7,30.41,NNE,22,6.2,6.2,81,0.00,CLR,,0.00,WeatherDisplay:10.37,2013-04-23 06:58:00,
2013-04-23 03:03:00,41.9,36.8,30.41,NNE,22,5.4,5.8,82,0.00,CLR,,0.00,WeatherDisplay:10.37,2013-04-23 07:03:00,
2013-04-23 03:08:00,41.7,36.3,30.41,NNE,22,1.6,2.3,81,0.00,CLR,,0.00,WeatherDisplay:10.37,2013-04-23 07:08:00,
2013-04-23 03:13:00,41.7,36.6,30.41,ENE,68,1.6,3.5,82,0.00,CLR,,0.00,WeatherDisplay:10.37,2013-04-23 07:13:00,
2013-04-23 03:18:00,41.5,37.1,30.40,NNE,22,4.3,4.6,84,0.00,CLR,,0.00,WeatherDisplay:10.37,2013-04-23 07:18:00,
2013-04-23 03:23:00,41.4,36.6,30.40,North,0,0.7,1.1,83,0.00,CLR,,0.00,WeatherDisplay:10.37,2013-04-23 07:23:00,
2013-04-23 03:28:00,41.4,36.6,30.40,North,0,1.6,3.5,83,0.00,CLR,,0.00,WeatherDisplay:10.37,2013-04-23 07:28:00,
2013-04-23 03:33:00,41.4,36.9,30.40,NE,45,1.4,2.3,84,0.00,CLR,,0.00,WeatherDisplay:10.37,2013-04-23 07:33:00,
2013-04-23 03:38:00,41.4,36.9,30.40,North,0,1.1,3.5,84,0.00,CLR,,0.00,WeatherDisplay:10.37,2013-04-23 07:38:00,
2013-04-23 03:43:00,41.4,37.2,30.40,ENE,68,2.9,4.6,85,0.00,CLR,,0.00,WeatherDisplay:10.37,2013-04-23 07:43:00,
2013-04-23 03:48:00,41.2,37.0,30.40,NE,45,2.4,4.6,85,0.00,CLR,,0.00,WeatherDisplay:10.37,2013-04-23 07:48:00,
2013-04-23 03:53:00,41.2,37.3,30.39,NNE,22,3.1,5.8,86,0.00,CLR,,0.00,WeatherDisplay:10.37,2013-04-23 07:53:00,
2013-04-23 03:58:00,41.2,37.6,30.39,East,90,1.8,2.3,87,0.00,CLR,,0.00,WeatherDisplay:10.37,2013-04-23 07:58:00,
2013-04-23 04:03:00,41.2,37.6,30.39,NNE,22,4.5,5.8,87,0.00,CLR,,0.00,WeatherDisplay:10.37,2013-04-23 08:03:00,
2013-04-23 04:08:00,41.2,37.6,30.39,NE,45,0.5,4.6,87,0.00,CLR,,0.00,WeatherDisplay:10.37,2013-04-23 08:08:00,
2013-04-23 04:13:00,41.4,37.8,30.39,NNE,22,4.5,4.5,87,0.00,CLR,,0.00,WeatherDisplay:10.37,2013-04-23 08:13:00,
2013-04-23 04:18:00,41.4,38.1,30.39,NE,45,4.0,4.0,88,0.00,CLR,,0.00,WeatherDisplay:10.37,2013-04-23 08:18:00,
2013-04-23 04:23:00,41.4,38.1,30.39,NNE,22,2.0,3.5,88,0.00,CLR,,0.00,WeatherDisplay:10.37,2013-04-23 08:23:00,
2013-04-23 04:28:00,41.4,38.1,30.39,NE,45,2.4,2.4,88,0.00,CLR,,0.00,WeatherDisplay:10.37,2013-04-23 08:28:00,
2013-04-23 04:33:00,41.4,38.1,30.39,NE,45,1.8,2.3,88,0.01,RA,,0.01,WeatherDisplay:10.37,2013-04-23 08:33:00,
2013-04-23 04:38:00,41.4,37.8,30.39,NE,45,2.0,4.6,87,0.01,RA,,0.01,WeatherDisplay:10.37,2013-04-23 08:38:00,
2013-04-23 04:43:00,41.4,38.1,30.39,NNW,338,2.2,4.6,88,0.01,CLR,,0.01,WeatherDisplay:10.37,2013-04-23 08:43:00,
2013-04-23 04:48:00,41.5,38.3,30.39,ENE,68,4.9,4.9,88,0.01,CLR,,0.01,WeatherDisplay:10.37,2013-04-23 08:48:00,
2013-04-23 04:53:00,41.5,38.5,30.39,East,90,1.8,5.8,89,0.01,CLR,,0.01,WeatherDisplay:10.37,2013-04-23 08:53:00,
2013-04-23 04:58:00,41.5,38.5,30.39,NE,45,4.7,4.7,89,0.01,CLR,,0.01,WeatherDisplay:10.37,2013-04-23 08:58:00,
2013-04-23 05:03:00,41.5,38.5,30.38,NE,45,2.4,2.4,89,0.01,CLR,,0.01,WeatherDisplay:10.37,2013-04-23 09:03:00,
2013-04-23 05:08:00,41.5,38.5,30.38,NE,45,4.5,4.6,89,0.01,CLR,,0.01,WeatherDisplay:10.37,2013-04-23 09:08:00,
2013-04-23 05:13:00,41.7,38.7,30.38,NE,45,4.5,4.6,89,0.01,CLR,,0.01,WeatherDisplay:10.37,2013-04-23 09:13:00,
2013-04-23 05:18:00,41.7,38.7,30.38,NNE,22,2.4,5.8,89,0.02,RA,,0.02,WeatherDisplay:10.37,2013-04-23 09:18:00,
2013-04-23 05:23:00,41.7,38.7,30.38,NNE,22,4.0,4.6,89,0.02,RA,,0.02,WeatherDisplay:10.37,2013-04-23 09:23:00,
2013-04-23 05:28:00,41.7,38.7,30.38,ESE,112,2.9,4.6,89,0.02,CLR,,0.02,WeatherDisplay:10.37,2013-04-23 09:28:00,
2013-04-23 07:21:00,42.8,39.8,30.36,NE,45,4.7,5.8,89,0.01,CLR,,0.02,WeatherDisplay:10.37,2013-04-23 11:21:00,
2013-04-23 07:26:00,43.0,40.0,30.36,NE,45,3.3,6.9,89,0.02,RA,,0.04,WeatherDisplay:10.37,2013-04-23 11:26:00,
2013-04-23 07:31:00,43.2,40.1,30.36,NNW,338,3.6,5.8,89,0.02,RA,,0.04,WeatherDisplay:10.37,2013-04-23 11:31:00,
2013-04-23 07:36:00,43.2,40.1,30.36,ENE,68,2.6,5.8,89,0.02,CLR,,0.04,WeatherDisplay:10.37,2013-04-23 11:36:00,
2013-04-23 07:41:00,43.2,40.1,30.36,NNE,22,4.0,4.0,89,0.02,CLR,,0.04,WeatherDisplay:10.37,2013-04-23 11:41:00,
2013-04-23 07:46:00,43.3,40.3,30.36,SE,135,0.5,1.1,89,0.02,CLR,,0.04,WeatherDisplay:10.37,2013-04-23 11:46:00,
2013-04-23 07:51:00,43.3,40.0,30.36,ENE,68,3.1,4.6,88,0.02,CLR,,0.04,WeatherDisplay:10.37,2013-04-23 11:51:00,
2013-04-23 07:56:00,43.5,40.5,30.36,NE,45,3.6,3.6,89,0.02,CLR,,0.04,WeatherDisplay:10.37,2013-04-23 11:56:00,
2013-04-23 08:01:00,43.5,40.5,30.36,NE,45,3.3,3.3,89,0.02,CLR,,0.04,WeatherDisplay:10.37,2013-04-23 12:01:00,
2013-04-23 08:06:00,43.5,40.5,30.36,NE,45,4.5,4.6,89,0.01,CLR,,0.04,WeatherDisplay:10.37,2013-04-23 12:06:00,
2013-04-23 08:11:00,43.7,40.7,30.35,East,90,2.9,5.8,89,0.01,CLR,,0.04,WeatherDisplay:10.37,2013-04-23 12:11:00,
2013-04-23 08:16:00,43.7,40.7,30.35,ENE,68,4.7,5.8,89,0.01,CLR,,0.04,WeatherDisplay:10.37,2013-04-23 12:16:00,
2013-04-23 08:21:00,43.7,40.7,30.35,NE,45,1.1,4.6,89,0.01,CLR,,0.04,WeatherDisplay:10.37,2013-04-23 12:21:00,
2013-04-23 08:26:00,43.9,40.8,30.35,East,90,1.4,2.3,89,0.00,CLR,,0.04,WeatherDisplay:10.37,2013-04-23 12:26:00,
2013-04-23 08:31:00,43.9,40.8,30.34,NNE,22,4.7,4.7,89,0.01,RA,,0.04,WeatherDisplay:10.37,2013-04-23 12:31:00,
2013-04-23 08:36:00,43.9,40.8,30.34,North,0,4.0,5.8,89,0.01,RA,,0.04,WeatherDisplay:10.37,2013-04-23 12:36:00,
2013-04-23 08:41:00,43.9,40.8,30.35,NE,45,2.4,3.5,89,0.01,,,0.04,WeatherDisplay:10.37,2013-04-23 12:41:00,
2013-04-23 08:46:00,44.1,41.0,30.34,NNE,22,3.1,4.6,89,0.01,CLR,,0.04,WeatherDisplay:10.37,2013-04-23 12:46:00,
2013-04-23 08:51:00,44.1,41.0,30.34,North,0,1.1,4.6,89,0.01,CLR,,0.04,WeatherDisplay:10.37,2013-04-23 12:51:00,
2013-04-23 08:56:00,44.2,41.2,30.34,NE,45,3.1,3.5,89,0.01,CLR,,0.04,WeatherDisplay:10.37,2013-04-23 12:56:00,
2013-04-23 09:01:00,44.2,41.2,30.34,NNE,22,0.9,3.5,89,0.01,CLR,,0.04,WeatherDisplay:10.37,2013-04-23 13:01:00,
2013-04-23 09:06:00,44.2,40.9,30.34,NNE,22,4.0,5.8,88,0.01,CLR,,0.04,WeatherDisplay:10.37,2013-04-23 13:06:00,
2013-04-23 09:11:00,44.2,41.2,30.34,NE,45,2.0,4.6,89,0.01,CLR,,0.04,WeatherDisplay:10.37,2013-04-23 13:11:00,
2013-04-23 09:16:00,44.2,41.2,30.34,NE,45,6.2,6.2,89,0.01,CLR,,0.04,WeatherDisplay:10.37,2013-04-23 13:16:00,
2013-04-23 09:21:00,44.2,41.2,30.34,NNW,338,2.4,2.4,89,0.01,CLR,,0.04,WeatherDisplay:10.37,2013-04-23 13:21:00,
2013-04-23 09:26:00,44.4,41.4,30.33,North,0,1.8,6.9,89,0.01,CLR,,0.04,WeatherDisplay:10.37,2013-04-23 13:26:00,
2013-04-23 09:31:00,44.6,41.8,30.33,North,0,2.9,3.5,90,0.00,CLR,,0.04,WeatherDisplay:10.37,2013-04-23 13:31:00,
2013-04-23 09:36:00,44.8,42.0,30.33,ENE,68,3.8,4.6,90,0.00,CLR,,0.04,WeatherDisplay:10.37,2013-04-23 13:36:00,
2013-04-23 09:41:00,45.0,42.2,30.33,ENE,68,2.4,2.4,90,0.00,CLR,,0.04,WeatherDisplay:10.37,2013-04-23 13:41:00,
2013-04-23 09:46:00,45.0,42.2,30.32,ENE,68,3.3,3.5,90,0.00,CLR,,0.04,WeatherDisplay:10.37,2013-04-23 13:46:00,
2013-04-23 09:51:00,45.3,42.6,30.32,ENE,68,6.2,6.2,90,0.00,CLR,,0.04,WeatherDisplay:10.37,2013-04-23 13:51:00,
2013-04-23 09:56:00,45.3,42.3,30.32,NE,45,2.4,6.9,89,0.00,CLR,,0.04,WeatherDisplay:10.37,2013-04-23 13:56:00,
2013-04-23 10:01:00,45.7,42.6,30.32,NE,45,5.4,6.9,89,0.00,CLR,,0.04,WeatherDisplay:10.37,2013-04-23 14:01:00,
2013-04-23 10:06:00,45.7,42.6,30.32,NE,45,6.4,6.4,89,0.00,CLR,,0.04,WeatherDisplay:10.37,2013-04-23 14:06:00,
2013-04-23 10:11:00,45.9,42.8,30.32,NE,45,6.9,6.9,89,0.00,CLR,,0.04,WeatherDisplay:10.37,2013-04-23 14:11:00,
2013-04-23 10:16:00,45.9,42.8,30.32,East,90,4.5,5.8,89,0.00,CLR,,0.04,WeatherDisplay:10.37,2013-04-23 14:16:00,
2013-04-23 10:21:00,46.0,42.7,30.32,East,90,6.9,8.1,88,0.00,CLR,,0.04,WeatherDisplay:10.37,2013-04-23 14:21:00,
2013-04-23 10:26:00,46.2,42.9,30.32,NE,45,7.6,7.6,88,0.00,CLR,,0.04,WeatherDisplay:10.37,2013-04-23 14:26:00,
2013-04-23 10:31:00,46.4,43.0,30.32,ENE,68,5.9,8.1,88,0.00,CLR,,0.04,WeatherDisplay:10.37,2013-04-23 14:31:00,
2013-04-23 10:36:00,46.4,43.0,30.31,East,90,7.6,8.1,88,0.00,CLR,,0.04,WeatherDisplay:10.37,2013-04-23 14:36:00,
2013-04-23 10:41:00,46.4,43.0,30.31,NE,45,6.7,12.7,88,0.00,CLR,,0.04,WeatherDisplay:10.37,2013-04-23 14:41:00,
2013-04-23 10:46:00,46.4,43.0,30.31,ENE,68,3.6,5.8,88,0.00,CLR,,0.04,WeatherDisplay:10.37,2013-04-23 14:46:00,
2013-04-23 10:51:00,46.4,43.0,30.31,East,90,7.1,10.4,88,0.00,CLR,,0.04,WeatherDisplay:10.37,2013-04-23 14:51:00,
2013-04-23 10:56:00,46.4,43.0,30.31,NE,45,2.0,5.8,88,0.00,CLR,,0.04,WeatherDisplay:10.37,2013-04-23 14:56:00,
2013-04-23 11:01:00,46.4,43.0,30.31,ENE,68,4.0,6.9,88,0.01,RA,,0.06,WeatherDisplay:10.37,2013-04-23 15:01:00,
2013-04-23 11:06:00,46.2,42.9,30.30,NE,45,6.9,6.9,88,0.01,RA,,0.06,WeatherDisplay:10.37,2013-04-23 15:06:00,
2013-04-23 11:11:00,46.4,43.0,30.30,North,0,5.9,6.9,88,0.01,,,0.06,WeatherDisplay:10.37,2013-04-23 15:11:00,
2013-04-23 11:16:00,46.4,43.0,30.30,East,90,9.4,9.4,88,0.01,CLR,,0.06,WeatherDisplay:10.37,2013-04-23 15:16:00,
2013-04-23 11:21:00,46.6,43.2,30.30,ENE,68,4.5,4.6,88,0.01,CLR,,0.06,WeatherDisplay:10.37,2013-04-23 15:21:00,
2013-04-23 11:26:00,46.6,43.2,30.30,NNW,338,7.6,11.5,88,0.01,CLR,,0.06,WeatherDisplay:10.37,2013-04-23 15:26:00,
2013-04-23 11:31:00,46.4,43.0,30.30,NNE,22,6.9,6.9,88,0.01,CLR,,0.06,WeatherDisplay:10.37,2013-04-23 15:31:00,
2013-04-23 11:36:00,46.4,43.0,30.30,NE,45,11.2,11.5,88,0.02,RA,,0.06,WeatherDisplay:10.37,2013-04-23 15:36:00,
2013-04-23 11:41:00,46.4,43.0,30.30,NE,45,9.2,10.4,88,0.02,RA,,0.06,WeatherDisplay:10.37,2013-04-23 15:41:00,
2013-04-23 11:46:00,46.4,43.0,30.30,East,90,5.4,6.9,88,0.02,CLR,,0.06,WeatherDisplay:10.37,2013-04-23 15:46:00,
2013-04-23 11:51:00,46.2,42.9,30.29,NNE,22,5.4,10.4,88,0.02,CLR,,0.06,WeatherDisplay:10.37,2013-04-23 15:51:00,
2013-04-23 11:56:00,46.2,42.9,30.29,ESE,112,1.8,11.5,88,0.03,RA,,0.07,WeatherDisplay:10.37,2013-04-23 15:56:00,
2013-04-23 12:01:00,46.2,42.9,30.28,SE,135,3.6,8.1,88,0.02,RA,,0.07,WeatherDisplay:10.37,2013-04-23 16:01:00,
2013-04-23 12:06:00,46.2,43.2,30.28,NE,45,8.3,8.3,89,0.02,,,0.07,WeatherDisplay:10.37,2013-04-23 16:06:00,
2013-04-23 12:11:00,46.2,43.2,30.27,NE,45,5.6,5.8,89,0.02,CLR,,0.07,WeatherDisplay:10.37,2013-04-23 16:11:00,
2013-04-23 12:16:00,46.4,43.3,30.27,NNE,22,5.9,9.2,89,0.03,RA,,0.09,WeatherDisplay:10.37,2013-04-23 16:16:00,
2013-04-23 12:21:00,46.2,42.9,30.27,NE,45,6.2,6.2,88,0.03,RA,,0.09,WeatherDisplay:10.37,2013-04-23 16:21:00,
2013-04-23 12:26:00,46.2,43.2,30.27,North,0,2.2,4.6,89,0.03,,,0.09,WeatherDisplay:10.37,2013-04-23 16:26:00,
2013-04-23 12:31:00,46.0,42.7,30.27,NE,45,4.5,12.7,88,0.03,CLR,,0.09,WeatherDisplay:10.37,2013-04-23 16:31:00,
2013-04-23 12:36:00,46.0,43.0,30.26,North,0,3.3,5.8,89,0.03,RA,,0.09,WeatherDisplay:10.37,2013-04-23 16:36:00,
2013-04-23 12:41:00,46.0,43.0,30.26,ENE,68,5.6,8.1,89,0.03,RA,,0.09,WeatherDisplay:10.37,2013-04-23 16:41:00,
2013-04-23 12:46:00,46.0,43.0,30.26,NNE,22,2.9,4.6,89,0.03,CLR,,0.09,WeatherDisplay:10.37,2013-04-23 16:46:00,
2013-04-23 12:51:00,46.2,43.2,30.25,NE,45,7.1,8.1,89,0.03,CLR,,0.09,WeatherDisplay:10.37,2013-04-23 16:51:00,
2013-04-23 12:56:00,46.0,43.0,30.25,NE,45,9.4,9.4,89,0.02,CLR,,0.09,WeatherDisplay:10.37,2013-04-23 16:56:00,
2013-04-23 13:01:00,46.2,43.2,30.25,North,0,7.1,8.1,89,0.03,RA,,0.11,WeatherDisplay:10.37,2013-04-23 17:01:00,
2013-04-23 13:06:00,46.2,43.2,30.25,ENE,68,4.9,10.4,89,0.03,RA,,0.11,WeatherDisplay:10.37,2013-04-23 17:06:00,
2013-04-23 13:11:00,46.2,43.2,30.24,NNW,338,11.8,11.8,89,0.03,,,0.11,WeatherDisplay:10.37,2013-04-23 17:11:00,
2013-04-23 13:16:00,46.2,43.2,30.24,NE,45,6.0,6.0,89,0.02,CLR,,0.11,WeatherDisplay:10.37,2013-04-23 17:16:00,
2013-04-23 13:21:00,46.0,43.0,30.24,NNE,22,5.2,8.1,89,0.02,CLR,,0.11,WeatherDisplay:10.37,2013-04-23 17:21:00,
2013-04-23 13:26:00,46.0,43.0,30.24,NE,45,6.4,9.2,89,0.03,RA,,0.11,WeatherDisplay:10.37,2013-04-23 17:26:00,
2013-04-23 13:31:00,46.0,43.0,30.24,NNE,22,5.4,10.4,89,0.03,RA,,0.11,WeatherDisplay:10.37,2013-04-23 17:31:00,
2013-04-23 13:36:00,45.9,42.8,30.23,ENE,68,3.6,9.2,89,0.02,CLR,,0.11,WeatherDisplay:10.37,2013-04-23 17:36:00,
2013-04-23 13:41:00,45.7,42.6,30.23,ENE,68,5.4,8.1,89,0.02,CLR,,0.11,WeatherDisplay:10.37,2013-04-23 17:41:00,
2013-04-23 13:46:00,45.7,42.6,30.23,NNE,22,6.0,8.1,89,0.03,RA,,0.13,WeatherDisplay:10.37,2013-04-23 17:46:00,
2013-04-23 13:51:00,45.7,42.6,30.22,NE,45,3.1,5.8,89,0.03,RA,,0.13,WeatherDisplay:10.37,2013-04-23 17:51:00,
2013-04-23 13:56:00,45.7,42.9,30.22,North,0,9.9,9.9,90,0.03,CLR,,0.13,WeatherDisplay:10.37,2013-04-23 17:56:00,
2013-04-23 14:01:00,45.5,42.4,30.22,North,0,7.1,10.4,89,0.03,RA,,0.13,WeatherDisplay:10.37,2013-04-23 18:01:00,
2013-04-23 14:06:00,45.5,42.4,30.22,ENE,68,1.8,6.9,89,0.03,RA,,0.13,WeatherDisplay:10.37,2013-04-23 18:06:00,
2013-04-23 14:11:00,45.7,42.6,30.21,ENE,68,6.9,10.4,89,0.04,RA,,0.15,WeatherDisplay:10.37,2013-04-23 18:11:00,
2013-04-23 14:16:00,45.5,42.7,30.21,NE,45,9.4,9.4,90,0.04,RA,,0.15,WeatherDisplay:10.37,2013-04-23 18:16:00,
2013-04-23 14:21:00,45.7,42.9,30.21,NNE,22,3.6,5.8,90,0.05,RA,,0.16,WeatherDisplay:10.37,2013-04-23 18:21:00,
2013-04-23 14:26:00,45.7,42.9,30.21,NE,45,6.9,9.2,90,0.04,RA,,0.16,WeatherDisplay:10.37,2013-04-23 18:26:00,
2013-04-23 14:31:00,45.5,42.7,30.20,NNE,22,9.9,9.9,90,0.05,RA,,0.17,WeatherDisplay:10.37,2013-04-23 18:31:00,
2013-04-23 14:36:00,45.5,42.7,30.20,NW,315,4.0,6.9,90,0.05,RA,,0.17,WeatherDisplay:10.37,2013-04-23 18:36:00,
2013-04-23 14:41:00,45.3,42.6,30.19,NNE,22,4.7,6.9,90,0.06,RA,,0.18,WeatherDisplay:10.37,2013-04-23 18:41:00,
2013-04-23 14:46:00,45.3,42.6,30.19,East,90,3.6,8.1,90,0.05,RA,,0.18,WeatherDisplay:10.37,2013-04-23 18:46:00,
2013-04-23 14:51:00,45.5,42.7,30.19,ENE,68,3.3,6.9,90,0.06,RA,,0.19,WeatherDisplay:10.37,2013-04-23 18:51:00,
2013-04-23 14:56:00,45.5,42.7,30.18,North,0,9.2,9.2,90,0.06,RA,,0.19,WeatherDisplay:10.37,2013-04-23 18:56:00,
2013-04-23 15:01:00,45.5,42.7,30.18,North,0,6.7,8.1,90,0.06,RA,,0.20,WeatherDisplay:10.37,2013-04-23 19:01:00,
2013-04-23 15:06:00,45.5,42.7,30.18,NNE,22,9.7,9.7,90,0.06,RA,,0.20,WeatherDisplay:10.37,2013-04-23 19:06:00,
2013-04-23 15:11:00,45.5,42.7,30.17,NE,45,4.3,10.4,90,0.05,,,0.20,WeatherDisplay:10.37,2013-04-23 19:11:00,
2013-04-23 15:16:00,45.5,42.7,30.17,NE,45,8.3,10.4,90,0.05,CLR,,0.20,WeatherDisplay:10.37,2013-04-23 19:16:00,
2013-04-23 15:21:00,45.3,42.6,30.17,NE,45,9.0,10.4,90,0.05,RA,,0.21,WeatherDisplay:10.37,2013-04-23 19:21:00,
2013-04-23 15:26:00,45.3,42.6,30.16,ENE,68,3.3,5.8,90,0.05,RA,,0.21,WeatherDisplay:10.37,2013-04-23 19:26:00,
2013-04-23 15:31:00,45.3,42.6,30.16,NE,45,10.0,10.4,90,0.04,CLR,,0.22,WeatherDisplay:10.37,2013-04-23 19:31:00,
2013-04-23 15:36:00,45.3,42.8,30.16,NNE,22,9.4,9.4,91,0.05,RA,,0.22,WeatherDisplay:10.37,2013-04-23 19:36:00,
2013-04-23 15:41:00,45.3,42.8,30.16,North,0,5.9,10.4,91,0.05,RA,,0.23,WeatherDisplay:10.37,2013-04-23 19:41:00,
2013-04-23 15:46:00,45.1,42.7,30.16,NNW,338,5.9,8.1,91,0.06,RA,,0.24,WeatherDisplay:10.37,2013-04-23 19:46:00,
2013-04-23 15:51:00,45.1,42.7,30.16,ENE,68,6.2,6.2,91,0.05,RA,,0.25,WeatherDisplay:10.37,2013-04-23 19:51:00,
2013-04-23 15:56:00,45.1,42.7,30.15,ENE,68,12.5,12.5,91,0.06,RA,,0.25,WeatherDisplay:10.37,2013-04-23 19:56:00,
2013-04-23 16:01:00,45.1,42.7,30.15,North,0,6.4,10.4,91,0.06,RA,,0.26,WeatherDisplay:10.37,2013-04-23 20:01:00,
2013-04-23 16:06:00,45.0,42.5,30.15,ENE,68,6.4,11.5,91,0.07,RA,,0.27,WeatherDisplay:10.37,2013-04-23 20:06:00,
2013-04-23 16:11:00,45.1,42.7,30.15,WSW,248,4.9,9.2,91,0.07,RA,,0.27,WeatherDisplay:10.37,2013-04-23 20:11:00,
2013-04-23 16:16:00,45.0,42.5,30.14,East,90,5.2,9.2,91,0.08,RA,,0.28,WeatherDisplay:10.37,2013-04-23 20:16:00,
2013-04-23 16:21:00,45.1,42.7,30.14,NNW,338,9.2,9.2,91,0.08,RA,,0.29,WeatherDisplay:10.37,2013-04-23 20:21:00,
2013-04-23 16:26:00,45.0,42.5,30.13,NE,45,6.4,6.4,91,0.09,RA,,0.30,WeatherDisplay:10.37,2013-04-23 20:26:00,
2013-04-23 16:31:00,45.1,42.7,30.13,NNE,22,7.6,8.1,91,0.10,RA,,0.31,WeatherDisplay:10.37,2013-04-23 20:31:00,
2013-04-23 16:36:00,45.0,42.5,30.13,NNE,22,2.0,10.4,91,0.09,RA,,0.32,WeatherDisplay:10.37,2013-04-23 20:36:00,
2013-04-23 16:41:00,45.1,42.7,30.13,NW,315,8.3,8.3,91,0.09,RA,,0.32,WeatherDisplay:10.37,2013-04-23 20:41:00,
2013-04-23 16:46:00,45.0,42.5,30.13,NE,45,4.0,15.0,91,0.09,RA,,0.33,WeatherDisplay:10.37,2013-04-23 20:46:00,
2013-04-23 16:51:00,45.0,42.5,30.12,NNE,22,8.5,9.2,91,0.10,RA,,0.34,WeatherDisplay:10.37,2013-04-23 20:51:00,
2013-04-23 16:56:00,45.0,42.5,30.12,SE,135,4.0,12.7,91,0.09,RA,,0.35,WeatherDisplay:10.37,2013-04-23 20:56:00,
2013-04-23 17:01:00,45.0,42.5,30.11,NE,45,4.7,4.7,91,0.09,RA,,0.35,WeatherDisplay:10.37,2013-04-23 21:01:00,
2013-04-23 17:06:00,45.0,42.5,30.11,NNW,338,3.1,9.2,91,0.09,RA,,0.36,WeatherDisplay:10.37,2013-04-23 21:06:00,
2013-04-23 17:11:00,45.0,42.5,30.11,NE,45,4.9,10.4,91,0.09,RA,,0.36,WeatherDisplay:10.37,2013-04-23 21:11:00,
2013-04-23 17:16:00,45.0,42.5,30.11,NNE,22,4.5,15.0,91,0.09,RA,,0.37,WeatherDisplay:10.37,2013-04-23 21:16:00,
2013-04-23 17:21:00,45.0,42.5,30.10,NNE,22,4.7,9.2,91,0.08,RA,,0.37,WeatherDisplay:10.37,2013-04-23 21:21:00,
2013-04-23 17:26:00,45.0,42.5,30.10,North,0,3.3,10.4,91,0.08,RA,,0.38,WeatherDisplay:10.37,2013-04-23 21:26:00,
2013-04-23 17:31:00,45.0,42.5,30.10,NNE,22,11.2,11.5,91,0.07,RA,,0.38,WeatherDisplay:10.37,2013-04-23 21:31:00,
2013-04-23 17:36:00,45.0,42.5,30.10,NNW,338,3.3,10.4,91,0.08,RA,,0.39,WeatherDisplay:10.37,2013-04-23 21:36:00,
2013-04-23 17:41:00,45.0,42.5,30.10,NNE,22,12.1,12.1,91,0.07,RA,,0.39,WeatherDisplay:10.37,2013-04-23 21:41:00,
2013-04-23 17:46:00,44.8,42.3,30.10,NE,45,9.2,9.2,91,0.07,RA,,0.40,WeatherDisplay:10.37,2013-04-23 21:46:00,
2013-04-23 17:51:00,44.8,42.3,30.10,North,0,5.2,6.9,91,0.06,RA,,0.40,WeatherDisplay:10.37,2013-04-23 21:51:00,
2013-04-23 17:56:00,44.8,42.3,30.10,ENE,68,4.0,5.8,91,0.07,RA,,0.41,WeatherDisplay:10.37,2013-04-23 21:56:00,
2013-04-23 18:01:00,44.8,42.3,30.10,North,0,7.6,10.4,91,0.06,RA,,0.42,WeatherDisplay:10.37,2013-04-23 22:01:00,
2013-04-23 18:06:00,44.6,42.1,30.10,ESE,112,5.2,9.2,91,0.06,RA,,0.42,WeatherDisplay:10.37,2013-04-23 22:06:00,
2013-04-23 18:11:00,44.6,42.1,30.09,NNE,22,5.2,8.1,91,0.07,RA,,0.43,WeatherDisplay:10.37,2013-04-23 22:11:00,
2013-04-23 18:16:00,44.6,42.4,30.09,NNE,22,5.4,8.1,92,0.06,RA,,0.43,WeatherDisplay:10.37,2013-04-23 22:16:00,
2013-04-23 18:21:00,44.4,42.0,30.09,North,0,5.4,5.4,91,0.07,RA,,0.44,WeatherDisplay:10.37,2013-04-23 22:21:00,
2013-04-23 18:26:00,44.4,42.0,30.09,North,0,5.9,9.2,91,0.07,RA,,0.45,WeatherDisplay:10.37,2013-04-23 22:26:00,
2013-04-23 18:31:00,44.4,42.0,30.09,ENE,68,4.7,4.7,91,0.08,RA,,0.46,WeatherDisplay:10.37,2013-04-23 22:31:00,
2013-04-23 18:36:00,44.2,41.8,30.09,North,0,4.3,10.4,91,0.07,RA,,0.46,WeatherDisplay:10.37,2013-04-23 22:36:00,
2013-04-23 18:41:00,44.2,41.8,30.09,WNW,292,6.2,6.9,91,0.08,RA,,0.47,WeatherDisplay:10.37,2013-04-23 22:41:00,
2013-04-23 18:46:00,44.2,41.8,30.08,NNW,338,2.6,8.1,91,0.07,RA,,0.47,WeatherDisplay:10.37,2013-04-23 22:46:00,
2013-04-23 18:51:00,44.2,41.8,30.08,North,0,2.4,5.8,91,0.08,RA,,0.48,WeatherDisplay:10.37,2013-04-23 22:51:00,
2013-04-23 18:56:00,44.2,41.8,30.08,North,0,3.6,5.8,91,0.07,RA,,0.49,WeatherDisplay:10.37,2013-04-23 22:56:00,
2013-04-23 19:01:00,44.2,41.8,30.08,NE,45,4.0,12.7,91,0.08,RA,,0.49,WeatherDisplay:10.37,2013-04-23 23:01:00,
2013-04-23 19:06:00,44.2,41.8,30.08,NNE,22,4.3,4.3,91,0.07,RA,,0.50,WeatherDisplay:10.37,2013-04-23 23:06:00,
2013-04-23 19:11:00,44.2,41.8,30.08,NNE,22,6.4,6.9,91,0.07,RA,,0.50,WeatherDisplay:10.37,2013-04-23 23:11:00,
2013-04-23 19:16:00,44.2,41.8,30.07,North,0,4.7,8.1,91,0.07,RA,,0.50,WeatherDisplay:10.37,2013-04-23 23:16:00,
2013-04-23 19:21:00,44.1,41.6,30.07,North,0,9.9,9.9,91,0.06,CLR,,0.51,WeatherDisplay:10.37,2013-04-23 23:21:00,
2013-04-23 19:26:00,44.1,41.6,30.06,NNW,338,4.9,8.1,91,0.06,RA,,0.51,WeatherDisplay:10.37,2013-04-23 23:26:00,
2013-04-23 19:31:00,44.1,41.6,30.07,North,0,4.9,5.8,91,0.05,RA,,0.51,WeatherDisplay:10.37,2013-04-23 23:31:00,
2013-04-23 19:36:00,44.1,41.6,30.06,NE,45,7.8,7.8,91,0.05,CLR,,0.51,WeatherDisplay:10.37,2013-04-23 23:36:00,
2013-04-23 19:41:00,44.1,41.6,30.06,NNE,22,6.4,6.9,91,0.05,RA,,0.52,WeatherDisplay:10.37,2013-04-23 23:41:00,
2013-04-23 19:46:00,43.9,41.4,30.05,NW,315,2.9,4.7,91,0.05,RA,,0.52,WeatherDisplay:10.37,2013-04-23 23:46:00,
2013-04-23 19:51:00,43.9,41.4,30.05,ENE,68,6.4,6.4,91,0.05,RA,,0.53,WeatherDisplay:10.37,2013-04-23 23:51:00,
2013-04-23 19:56:00,43.9,41.4,30.05,ENE,68,7.6,7.6,91,0.05,RA,,0.53,WeatherDisplay:10.37,2013-04-23 23:56:00,
2013-04-23 20:01:00,44.1,41.6,30.05,North,0,9.2,9.2,91,0.05,RA,,0.54,WeatherDisplay:10.37,2013-04-24 00:01:00,
2013-04-23 20:06:00,43.9,41.7,30.05,NNE,22,5.2,8.1,92,0.06,RA,,0.55,WeatherDisplay:10.37,2013-04-24 00:06:00,
2013-04-23 20:11:00,43.9,41.7,30.05,North,0,9.0,9.0,92,0.05,RA,,0.56,WeatherDisplay:10.37,2013-04-24 00:11:00,
2013-04-23 20:16:00,44.1,41.9,30.04,North,0,5.4,12.7,92,0.06,RA,,0.56,WeatherDisplay:10.37,2013-04-24 00:16:00,
2013-04-23 20:21:00,44.1,41.9,30.04,NNE,22,7.4,7.4,92,0.06,RA,,0.56,WeatherDisplay:10.37,2013-04-24 00:21:00,
2013-04-23 20:26:00,44.1,41.9,30.04,NNW,338,2.6,9.2,92,0.05,CLR,,0.56,WeatherDisplay:10.37,2013-04-24 00:26:00,
2013-04-23 20:31:00,44.1,41.9,30.04,NE,45,7.4,7.4,92,0.06,RA,,0.57,WeatherDisplay:10.37,2013-04-24 00:31:00,
2013-04-23 20:36:00,44.1,41.9,30.04,NNE,22,6.2,13.8,92,0.06,RA,,0.57,WeatherDisplay:10.37,2013-04-24 00:36:00,
2013-04-23 20:41:00,44.1,41.9,30.03,NW,315,6.7,6.7,92,0.06,RA,,0.58,WeatherDisplay:10.37,2013-04-24 00:41:00,
2013-04-23 20:46:00,44.1,41.9,30.03,NNW,338,2.6,8.1,92,0.06,RA,,0.59,WeatherDisplay:10.37,2013-04-24 00:46:00,
2013-04-23 20:51:00,44.1,41.9,30.03,NE,45,4.0,8.1,92,0.06,RA,,0.59,WeatherDisplay:10.37,2013-04-24 00:51:00,
2013-04-23 20:56:00,44.1,41.9,30.03,NE,45,5.9,5.9,92,0.07,RA,,0.60,WeatherDisplay:10.37,2013-04-24 00:56:00,
2013-04-23 21:01:00,43.9,41.7,30.03,SE,135,6.9,10.4,92,0.07,RA,,0.61,WeatherDisplay:10.37,2013-04-24 01:01:00,
2013-04-23 21:06:00,44.1,41.9,30.02,NNW,338,7.8,7.8,92,0.06,RA,,0.61,WeatherDisplay:10.37,2013-04-24 01:06:00,
2013-04-23 21:11:00,44.1,41.9,30.03,North,0,9.2,9.2,92,0.07,RA,,0.62,WeatherDisplay:10.37,2013-04-24 01:11:00,
2013-04-23 21:16:00,44.1,41.9,30.02,North,0,4.7,9.2,92,0.07,RA,,0.63,WeatherDisplay:10.37,2013-04-24 01:16:00,
2013-04-23 21:21:00,44.1,41.9,30.02,NNE,22,4.7,11.5,92,0.08,RA,,0.64,WeatherDisplay:10.37,2013-04-24 01:21:00,
2013-04-23 21:26:00,43.9,41.7,30.02,North,0,6.2,6.9,92,0.09,RA,,0.67,WeatherDisplay:10.37,2013-04-24 01:26:00,
2013-04-23 21:31:00,43.9,41.7,30.02,NE,45,3.6,12.7,92,0.11,RA,,0.69,WeatherDisplay:10.37,2013-04-24 01:31:00,
2013-04-23 21:36:00,43.9,41.7,30.01,NNE,22,4.3,9.2,92,0.12,RA,,0.70,WeatherDisplay:10.37,2013-04-24 01:36:00,
2013-04-23 21:41:00,43.9,41.7,30.00,North,0,6.0,6.9,92,0.12,RA,,0.70,WeatherDisplay:10.37,2013-04-24 01:41:00,
2013-04-23 21:46:00,43.9,41.7,30.00,North,0,5.4,8.1,92,0.13,RA,,0.72,WeatherDisplay:10.37,2013-04-24 01:46:00,
2013-04-23 21:51:00,43.9,41.7,30.01,NNE,22,7.8,8.1,92,0.13,RA,,0.72,WeatherDisplay:10.37,2013-04-24 01:51:00,
2013-04-23 21:56:00,43.9,41.7,30.00,NNW,338,2.0,10.4,92,0.13,RA,,0.74,WeatherDisplay:10.37,2013-04-24 01:56:00,
2013-04-23 22:01:00,43.9,41.7,30.00,NNW,338,7.1,11.5,92,0.13,RA,,0.74,WeatherDisplay:10.37,2013-04-24 02:01:00,
2013-04-23 22:06:00,43.9,41.7,30.00,NNW,338,7.8,10.4,92,0.14,RA,,0.76,WeatherDisplay:10.37,2013-04-24 02:06:00,
2013-04-23 22:12:00,43.9,41.7,30.00,NNE,22,8.3,10.7,92,0.15,RA,,0.78,WeatherDisplay:10.37,2013-04-24 02:12:00,
2013-04-23 22:17:00,43.9,41.7,30.00,NE,45,5.9,8.1,92,0.15,RA,,0.79,WeatherDisplay:10.37,2013-04-24 02:17:00,
2013-04-23 22:22:00,43.9,41.7,29.99,North,0,2.4,2.4,92,0.17,RA,,0.81,WeatherDisplay:10.37,2013-04-24 02:22:00,
2013-04-23 22:27:00,43.9,41.7,29.98,North,0,5.2,9.2,92,0.16,RA,,0.83,WeatherDisplay:10.37,2013-04-24 02:27:00,
2013-04-23 22:32:00,43.7,41.5,29.98,NNW,338,6.0,6.0,92,0.15,RA,,0.85,WeatherDisplay:10.37,2013-04-24 02:32:00,
2013-04-23 22:37:00,43.7,41.5,29.97,North,0,4.3,10.4,92,0.14,RA,,0.86,WeatherDisplay:10.37,2013-04-24 02:37:00,
2013-04-23 22:42:00,43.7,41.5,29.97,NE,45,2.2,8.1,92,0.15,RA,,0.87,WeatherDisplay:10.37,2013-04-24 02:42:00,
2013-04-23 22:48:00,43.7,41.5,29.96,NNE,22,4.7,6.9,92,0.18,RA,,0.91,WeatherDisplay:10.37,2013-04-24 02:48:00,
2013-04-23 22:53:00,43.7,41.5,29.96,NE,45,4.0,4.6,92,0.19,RA,,0.93,WeatherDisplay:10.37,2013-04-24 02:53:00,
2013-04-23 22:58:00,43.7,41.5,29.96,NE,45,4.7,13.8,92,0.21,RA,,0.95,WeatherDisplay:10.37,2013-04-24 02:58:00,
2013-04-23 23:03:00,43.5,41.4,29.96,NNE,22,5.4,9.2,92,0.21,RA,,0.97,WeatherDisplay:10.37,2013-04-24 03:03:00,
2013-04-23 23:08:00,43.5,41.4,29.95,NE,45,12.1,12.1,92,0.22,RA,,1.00,WeatherDisplay:10.37,2013-04-24 03:08:00,
2013-04-23 23:14:00,43.5,41.4,29.95,NNE,22,3.3,9.2,92,0.26,RA,,1.03,WeatherDisplay:10.37,2013-04-24 03:14:00,
2013-04-23 23:19:00,43.5,41.4,29.94,North,0,5.6,11.5,92,0.26,RA,,1.05,WeatherDisplay:10.37,2013-04-24 03:19:00,
2013-04-23 23:24:00,43.5,41.4,29.93,North,0,8.5,8.5,92,0.26,RA,,1.08,WeatherDisplay:10.37,2013-04-24 03:24:00,
2013-04-23 23:29:00,43.5,41.4,29.93,NE,45,8.7,9.2,92,0.26,RA,,1.09,WeatherDisplay:10.37,2013-04-24 03:29:00,
2013-04-23 23:34:00,43.5,41.4,29.93,NE,45,4.0,4.6,92,0.28,RA,,1.12,WeatherDisplay:10.37,2013-04-24 03:34:00,
2013-04-23 23:40:00,43.5,41.6,29.93,NE,45,10.0,10.4,93,0.29,RA,,1.15,WeatherDisplay:10.37,2013-04-24 03:40:00,
2013-04-23 23:45:00,43.5,41.6,29.92,NE,45,6.4,6.9,93,0.31,RA,,1.20,WeatherDisplay:10.37,2013-04-24 03:45:00,
2013-04-23 23:51:00,43.5,41.6,29.92,North,0,14.3,15.0,93,0.32,RA,,1.23,WeatherDisplay:10.37,2013-04-24 03:51:00,
2013-04-23 23:56:00,43.5,41.6,29.92,North,0,9.0,18.4,93,0.33,RA,,1.26,WeatherDisplay:10.37,2013-04-24 03:56:00,